sensor_id;sensor_type;location;lat;lon;timestamp;temperature;humidity
25616;DHT22;13482;48.234;13.006;2024-03-02T00:01:16;9.50;74.50
25616;DHT22;13482;48.234;13.006;2024-03-02T00:03:44;9.50;74.50
25616;DHT22;13482;48.234;13.006;2024-03-02T00:06:11;9.40;74.60
25616;DHT22;13482;48.234;13.006;2024-03-02T00:08:39;9.40;74.60
25616;DHT22;13482;48.234;13.006;2024-03-02T00:11:07;9.40;74.60
25616;DHT22;13482;48.234;13.006;2024-03-02T00:13:35;9.40;74.60
25616;DHT22;13482;48.234;13.006;2024-03-02T00:16:03;9.40;74.70
25616;DHT22;13482;48.234;13.006;2024-03-02T00:18:34;9.40;74.70
25616;DHT22;13482;48.234;13.006;2024-03-02T00:21:03;9.40;74.80
25616;DHT22;13482;48.234;13.006;2024-03-02T00:23:33;9.40;74.80
25616;DHT22;13482;48.234;13.006;2024-03-02T00:26:03;9.40;74.80
25616;DHT22;13482;48.234;13.006;2024-03-02T00:31:07;9.40;74.90
25616;DHT22;13482;48.234;13.006;2024-03-02T00:33:43;9.40;74.90
25616;DHT22;13482;48.234;13.006;2024-03-02T00:36:15;9.40;74.90
25616;DHT22;13482;48.234;13.006;2024-03-02T00:38:46;9.40;74.90
25616;DHT22;13482;48.234;13.006;2024-03-02T00:41:21;9.40;74.90
25616;DHT22;13482;48.234;13.006;2024-03-02T00:46:29;9.40;74.90
25616;DHT22;13482;48.234;13.006;2024-03-02T00:49:02;9.40;74.90
25616;DHT22;13482;48.234;13.006;2024-03-02T00:51:39;9.40;75.00
25616;DHT22;13482;48.234;13.006;2024-03-02T00:54:09;9.40;75.00
25616;DHT22;13482;48.234;13.006;2024-03-02T00:56:36;9.40;75.00
25616;DHT22;13482;48.234;13.006;2024-03-02T00:59:04;9.40;75.00
25616;DHT22;13482;48.234;13.006;2024-03-02T01:01:31;9.40;75.10
25616;DHT22;13482;48.234;13.006;2024-03-02T01:03:59;9.40;75.10
25616;DHT22;13482;48.234;13.006;2024-03-02T01:06:27;9.50;75.00
25616;DHT22;13482;48.234;13.006;2024-03-02T01:08:54;9.40;75.10
25616;DHT22;13482;48.234;13.006;2024-03-02T01:11:22;9.50;75.00
25616;DHT22;13482;48.234;13.006;2024-03-02T01:13:50;9.50;75.00
25616;DHT22;13482;48.234;13.006;2024-03-02T01:16:21;9.50;75.00
25616;DHT22;13482;48.234;13.006;2024-03-02T01:18:49;9.50;75.00
25616;DHT22;13482;48.234;13.006;2024-03-02T01:21:16;9.50;75.00
25616;DHT22;13482;48.234;13.006;2024-03-02T01:23:44;9.50;75.00
25616;DHT22;13482;48.234;13.006;2024-03-02T01:26:11;9.50;75.00
25616;DHT22;13482;48.234;13.006;2024-03-02T01:28:39;9.50;75.00
25616;DHT22;13482;48.234;13.006;2024-03-02T01:31:07;9.50;75.00
25616;DHT22;13482;48.234;13.006;2024-03-02T01:33:34;9.50;75.00
25616;DHT22;13482;48.234;13.006;2024-03-02T01:36:02;9.50;75.00
25616;DHT22;13482;48.234;13.006;2024-03-02T01:38:29;9.50;75.10
25616;DHT22;13482;48.234;13.006;2024-03-02T01:40:58;9.50;75.10
25616;DHT22;13482;48.234;13.006;2024-03-02T01:43:25;9.50;75.10
25616;DHT22;13482;48.234;13.006;2024-03-02T01:45:53;9.50;75.10
25616;DHT22;13482;48.234;13.006;2024-03-02T01:48:21;9.50;75.10
25616;DHT22;13482;48.234;13.006;2024-03-02T01:50:48;9.50;75.00
25616;DHT22;13482;48.234;13.006;2024-03-02T01:53:15;9.50;75.00
25616;DHT22;13482;48.234;13.006;2024-03-02T01:55:43;9.50;75.00
25616;DHT22;13482;48.234;13.006;2024-03-02T01:58:11;9.50;75.00
25616;DHT22;13482;48.234;13.006;2024-03-02T02:00:39;9.50;74.90
25616;DHT22;13482;48.234;13.006;2024-03-02T02:03:06;9.50;74.90
25616;DHT22;13482;48.234;13.006;2024-03-02T02:05:35;9.50;74.90
25616;DHT22;13482;48.234;13.006;2024-03-02T02:08:02;9.50;74.90
25616;DHT22;13482;48.234;13.006;2024-03-02T02:10:30;9.50;74.90
25616;DHT22;13482;48.234;13.006;2024-03-02T02:12:57;9.50;74.90
25616;DHT22;13482;48.234;13.006;2024-03-02T02:15:26;9.50;74.90
25616;DHT22;13482;48.234;13.006;2024-03-02T02:17:56;9.50;74.80
25616;DHT22;13482;48.234;13.006;2024-03-02T02:20:25;9.40;74.80
25616;DHT22;13482;48.234;13.006;2024-03-02T02:23:00;9.40;74.80
25616;DHT22;13482;48.234;13.006;2024-03-02T02:25:37;9.40;74.80
25616;DHT22;13482;48.234;13.006;2024-03-02T02:28:07;9.40;74.80
25616;DHT22;13482;48.234;13.006;2024-03-02T02:30:34;9.30;74.90
25616;DHT22;13482;48.234;13.006;2024-03-02T02:33:02;9.30;74.90
25616;DHT22;13482;48.234;13.006;2024-03-02T02:35:29;9.30;74.90
25616;DHT22;13482;48.234;13.006;2024-03-02T02:37:57;9.30;74.90
25616;DHT22;13482;48.234;13.006;2024-03-02T02:40:28;9.30;74.90
25616;DHT22;13482;48.234;13.006;2024-03-02T02:42:58;9.30;74.90
25616;DHT22;13482;48.234;13.006;2024-03-02T02:45:26;9.20;74.90
25616;DHT22;13482;48.234;13.006;2024-03-02T02:47:53;9.20;74.90
25616;DHT22;13482;48.234;13.006;2024-03-02T02:50:21;9.20;74.90
25616;DHT22;13482;48.234;13.006;2024-03-02T02:52:48;9.20;74.90
25616;DHT22;13482;48.234;13.006;2024-03-02T02:55:15;9.20;74.90
25616;DHT22;13482;48.234;13.006;2024-03-02T02:57:43;9.10;74.90
25616;DHT22;13482;48.234;13.006;2024-03-02T03:00:14;9.10;74.90
25616;DHT22;13482;48.234;13.006;2024-03-02T03:02:45;9.10;74.90
25616;DHT22;13482;48.234;13.006;2024-03-02T03:05:15;9.10;75.20
25616;DHT22;13482;48.234;13.006;2024-03-02T03:07:43;9.10;74.70
25616;DHT22;13482;48.234;13.006;2024-03-02T03:10:12;9.10;74.80
25616;DHT22;13482;48.234;13.006;2024-03-02T03:12:41;9.10;74.90
25616;DHT22;13482;48.234;13.006;2024-03-02T03:15:11;9.00;74.90
25616;DHT22;13482;48.234;13.006;2024-03-02T03:17:40;9.00;74.90
25616;DHT22;13482;48.234;13.006;2024-03-02T03:20:08;9.00;74.90
25616;DHT22;13482;48.234;13.006;2024-03-02T03:22:38;9.00;74.90
25616;DHT22;13482;48.234;13.006;2024-03-02T03:25:06;9.00;74.90
25616;DHT22;13482;48.234;13.006;2024-03-02T03:27:37;9.00;74.80
25616;DHT22;13482;48.234;13.006;2024-03-02T03:30:05;8.90;74.80
25616;DHT22;13482;48.234;13.006;2024-03-02T03:32:34;8.90;74.80
25616;DHT22;13482;48.234;13.006;2024-03-02T03:35:02;8.80;74.80
25616;DHT22;13482;48.234;13.006;2024-03-02T03:37:31;8.80;74.80
25616;DHT22;13482;48.234;13.006;2024-03-02T03:40:02;8.80;74.80
25616;DHT22;13482;48.234;13.006;2024-03-02T03:42:30;8.80;74.90
25616;DHT22;13482;48.234;13.006;2024-03-02T03:44:57;8.80;74.90
25616;DHT22;13482;48.234;13.006;2024-03-02T03:47:25;8.70;75.00
25616;DHT22;13482;48.234;13.006;2024-03-02T03:49:52;8.70;75.00
25616;DHT22;13482;48.234;13.006;2024-03-02T03:52:20;8.70;75.00
25616;DHT22;13482;48.234;13.006;2024-03-02T03:54:48;8.70;75.10
25616;DHT22;13482;48.234;13.006;2024-03-02T03:57:15;8.60;75.10
25616;DHT22;13482;48.234;13.006;2024-03-02T03:59:43;8.60;75.20
25616;DHT22;13482;48.234;13.006;2024-03-02T04:02:11;8.60;75.20
25616;DHT22;13482;48.234;13.006;2024-03-02T04:04:39;8.60;75.20
25616;DHT22;13482;48.234;13.006;2024-03-02T04:07:07;8.60;75.30
25616;DHT22;13482;48.234;13.006;2024-03-02T04:09:34;8.60;75.30
25616;DHT22;13482;48.234;13.006;2024-03-02T04:12:02;8.60;75.30
25616;DHT22;13482;48.234;13.006;2024-03-02T04:14:29;8.60;75.40
25616;DHT22;13482;48.234;13.006;2024-03-02T04:16:57;8.60;75.40
25616;DHT22;13482;48.234;13.006;2024-03-02T04:19:24;8.60;75.40
25616;DHT22;13482;48.234;13.006;2024-03-02T04:21:51;8.70;75.40
25616;DHT22;13482;48.234;13.006;2024-03-02T04:24:19;8.70;75.40
25616;DHT22;13482;48.234;13.006;2024-03-02T04:26:46;8.70;75.50
25616;DHT22;13482;48.234;13.006;2024-03-02T04:29:14;8.70;75.50
25616;DHT22;13482;48.234;13.006;2024-03-02T04:31:41;8.70;75.50
25616;DHT22;13482;48.234;13.006;2024-03-02T04:34:08;8.70;75.50
25616;DHT22;13482;48.234;13.006;2024-03-02T04:36:36;8.70;75.40
25616;DHT22;13482;48.234;13.006;2024-03-02T04:39:03;8.70;75.40
25616;DHT22;13482;48.234;13.006;2024-03-02T04:41:31;8.70;75.40
25616;DHT22;13482;48.234;13.006;2024-03-02T04:43:59;8.70;75.40
25616;DHT22;13482;48.234;13.006;2024-03-02T04:46:26;8.70;75.40
25616;DHT22;13482;48.234;13.006;2024-03-02T04:48:53;8.70;75.40
25616;DHT22;13482;48.234;13.006;2024-03-02T04:51:24;8.70;75.40
25616;DHT22;13482;48.234;13.006;2024-03-02T04:53:51;8.70;75.40
25616;DHT22;13482;48.234;13.006;2024-03-02T04:56:19;8.70;75.40
25616;DHT22;13482;48.234;13.006;2024-03-02T04:59:06;8.70;75.40
25616;DHT22;13482;48.234;13.006;2024-03-02T05:01:33;8.70;75.30
25616;DHT22;13482;48.234;13.006;2024-03-02T05:04:01;8.70;75.30
25616;DHT22;13482;48.234;13.006;2024-03-02T05:06:28;8.60;75.30
25616;DHT22;13482;48.234;13.006;2024-03-02T05:08:57;8.60;75.30
25616;DHT22;13482;48.234;13.006;2024-03-02T05:11:24;8.60;75.30
25616;DHT22;13482;48.234;13.006;2024-03-02T05:14:05;8.60;75.30
25616;DHT22;13482;48.234;13.006;2024-03-02T05:16:34;8.60;75.30
25616;DHT22;13482;48.234;13.006;2024-03-02T05:19:02;8.60;75.30
25616;DHT22;13482;48.234;13.006;2024-03-02T05:21:30;8.60;75.30
25616;DHT22;13482;48.234;13.006;2024-03-02T05:23:57;8.60;75.40
25616;DHT22;13482;48.234;13.006;2024-03-02T05:26:24;8.60;75.30
25616;DHT22;13482;48.234;13.006;2024-03-02T05:28:52;8.50;75.40
25616;DHT22;13482;48.234;13.006;2024-03-02T05:31:19;8.50;75.30
25616;DHT22;13482;48.234;13.006;2024-03-02T05:33:47;8.50;75.40
25616;DHT22;13482;48.234;13.006;2024-03-02T05:36:16;8.50;75.30
25616;DHT22;13482;48.234;13.006;2024-03-02T05:38:43;8.50;75.30
25616;DHT22;13482;48.234;13.006;2024-03-02T05:41:11;8.50;75.30
25616;DHT22;13482;48.234;13.006;2024-03-02T05:43:39;8.50;75.20
25616;DHT22;13482;48.234;13.006;2024-03-02T05:46:06;8.50;75.20
25616;DHT22;13482;48.234;13.006;2024-03-02T05:48:34;8.50;75.20
25616;DHT22;13482;48.234;13.006;2024-03-02T05:51:01;8.40;75.20
25616;DHT22;13482;48.234;13.006;2024-03-02T05:53:29;8.40;75.20
25616;DHT22;13482;48.234;13.006;2024-03-02T05:55:56;8.30;75.20
25616;DHT22;13482;48.234;13.006;2024-03-02T05:58:26;8.30;75.40
25616;DHT22;13482;48.234;13.006;2024-03-02T06:01:13;8.30;75.50
25616;DHT22;13482;48.234;13.006;2024-03-02T06:03:41;8.30;75.60
25616;DHT22;13482;48.234;13.006;2024-03-02T06:06:08;8.30;75.70
25616;DHT22;13482;48.234;13.006;2024-03-02T06:08:36;8.30;75.70
25616;DHT22;13482;48.234;13.006;2024-03-02T06:11:03;8.30;75.80
25616;DHT22;13482;48.234;13.006;2024-03-02T06:13:31;8.30;75.80
25616;DHT22;13482;48.234;13.006;2024-03-02T06:15:59;8.30;75.90
25616;DHT22;13482;48.234;13.006;2024-03-02T06:18:26;8.30;75.90
25616;DHT22;13482;48.234;13.006;2024-03-02T06:20:55;8.30;75.90
25616;DHT22;13482;48.234;13.006;2024-03-02T06:23:22;8.30;75.90
25616;DHT22;13482;48.234;13.006;2024-03-02T06:25:50;8.30;75.90
25616;DHT22;13482;48.234;13.006;2024-03-02T06:28:17;8.30;75.90
25616;DHT22;13482;48.234;13.006;2024-03-02T06:30:45;8.30;75.90
25616;DHT22;13482;48.234;13.006;2024-03-02T06:33:13;8.30;75.90
25616;DHT22;13482;48.234;13.006;2024-03-02T06:35:40;8.30;75.90
25616;DHT22;13482;48.234;13.006;2024-03-02T06:38:08;8.30;75.90
25616;DHT22;13482;48.234;13.006;2024-03-02T06:40:35;8.30;75.90
25616;DHT22;13482;48.234;13.006;2024-03-02T06:43:06;8.30;76.00
25616;DHT22;13482;48.234;13.006;2024-03-02T06:45:33;8.30;76.00
25616;DHT22;13482;48.234;13.006;2024-03-02T06:48:01;8.30;76.00
25616;DHT22;13482;48.234;13.006;2024-03-02T06:50:29;8.30;76.10
25616;DHT22;13482;48.234;13.006;2024-03-02T06:52:56;8.30;76.10
25616;DHT22;13482;48.234;13.006;2024-03-02T06:55:24;8.40;76.10
25616;DHT22;13482;48.234;13.006;2024-03-02T06:57:52;8.40;76.10
25616;DHT22;13482;48.234;13.006;2024-03-02T07:00:19;8.40;76.10
25616;DHT22;13482;48.234;13.006;2024-03-02T07:02:50;8.40;76.20
25616;DHT22;13482;48.234;13.006;2024-03-02T07:05:17;8.40;76.20
25616;DHT22;13482;48.234;13.006;2024-03-02T07:07:44;8.50;76.20
25616;DHT22;13482;48.234;13.006;2024-03-02T07:10:12;8.50;76.30
25616;DHT22;13482;48.234;13.006;2024-03-02T07:12:39;8.50;76.30
25616;DHT22;13482;48.234;13.006;2024-03-02T07:15:07;8.50;76.30
25616;DHT22;13482;48.234;13.006;2024-03-02T07:17:38;8.50;76.30
25616;DHT22;13482;48.234;13.006;2024-03-02T07:20:06;8.60;76.30
25616;DHT22;13482;48.234;13.006;2024-03-02T07:22:34;8.60;76.20
25616;DHT22;13482;48.234;13.006;2024-03-02T07:25:01;8.60;76.20
25616;DHT22;13482;48.234;13.006;2024-03-02T07:27:31;8.60;76.20
25616;DHT22;13482;48.234;13.006;2024-03-02T07:29:58;8.70;76.20
25616;DHT22;13482;48.234;13.006;2024-03-02T07:32:26;8.60;76.10
25616;DHT22;13482;48.234;13.006;2024-03-02T07:34:53;8.70;76.10
25616;DHT22;13482;48.234;13.006;2024-03-02T07:37:21;8.70;76.10
25616;DHT22;13482;48.234;13.006;2024-03-02T07:39:50;8.70;76.00
25616;DHT22;13482;48.234;13.006;2024-03-02T07:42:18;8.70;76.00
25616;DHT22;13482;48.234;13.006;2024-03-02T07:44:45;8.70;76.00
25616;DHT22;13482;48.234;13.006;2024-03-02T07:47:13;8.70;76.00
25616;DHT22;13482;48.234;13.006;2024-03-02T07:49:40;8.70;76.00
25616;DHT22;13482;48.234;13.006;2024-03-02T07:52:08;8.70;76.00
25616;DHT22;13482;48.234;13.006;2024-03-02T07:54:35;8.70;76.10
25616;DHT22;13482;48.234;13.006;2024-03-02T07:57:03;8.70;76.30
25616;DHT22;13482;48.234;13.006;2024-03-02T07:59:31;8.80;76.40
25616;DHT22;13482;48.234;13.006;2024-03-02T08:01:58;8.80;76.50
25616;DHT22;13482;48.234;13.006;2024-03-02T08:04:26;8.80;76.70
25616;DHT22;13482;48.234;13.006;2024-03-02T08:06:53;8.90;76.80
25616;DHT22;13482;48.234;13.006;2024-03-02T08:09:22;9.00;77.00
25616;DHT22;13482;48.234;13.006;2024-03-02T08:11:49;9.00;77.20
25616;DHT22;13482;48.234;13.006;2024-03-02T08:14:16;9.10;77.30
25616;DHT22;13482;48.234;13.006;2024-03-02T08:16:44;9.20;77.40
25616;DHT22;13482;48.234;13.006;2024-03-02T08:19:12;9.30;77.30
25616;DHT22;13482;48.234;13.006;2024-03-02T08:21:40;9.30;77.50
25616;DHT22;13482;48.234;13.006;2024-03-02T08:24:07;9.40;77.60
25616;DHT22;13482;48.234;13.006;2024-03-02T08:26:35;9.50;77.80
25616;DHT22;13482;48.234;13.006;2024-03-02T08:29:02;9.70;77.90
25616;DHT22;13482;48.234;13.006;2024-03-02T08:31:52;9.80;77.90
25616;DHT22;13482;48.234;13.006;2024-03-02T08:34:40;9.90;77.90
25616;DHT22;13482;48.234;13.006;2024-03-02T08:37:07;10.10;77.70
25616;DHT22;13482;48.234;13.006;2024-03-02T08:39:35;10.10;77.90
25616;DHT22;13482;48.234;13.006;2024-03-02T08:42:02;10.30;78.00
25616;DHT22;13482;48.234;13.006;2024-03-02T08:44:31;10.40;78.10
25616;DHT22;13482;48.234;13.006;2024-03-02T08:47:00;10.60;78.20
25616;DHT22;13482;48.234;13.006;2024-03-02T08:49:27;10.70;78.30
25616;DHT22;13482;48.234;13.006;2024-03-02T08:51:55;10.80;78.30
25616;DHT22;13482;48.234;13.006;2024-03-02T08:54:22;11.00;78.30
25616;DHT22;13482;48.234;13.006;2024-03-02T08:56:51;11.10;78.30
25616;DHT22;13482;48.234;13.006;2024-03-02T08:59:21;11.30;78.20
25616;DHT22;13482;48.234;13.006;2024-03-02T09:01:49;11.40;78.20
25616;DHT22;13482;48.234;13.006;2024-03-02T09:04:16;11.60;78.00
25616;DHT22;13482;48.234;13.006;2024-03-02T09:06:44;11.70;78.00
25616;DHT22;13482;48.234;13.006;2024-03-02T09:09:11;11.80;77.80
25616;DHT22;13482;48.234;13.006;2024-03-02T09:11:39;11.90;77.60
25616;DHT22;13482;48.234;13.006;2024-03-02T09:14:06;12.00;77.40
25616;DHT22;13482;48.234;13.006;2024-03-02T09:16:34;12.10;77.30
25616;DHT22;13482;48.234;13.006;2024-03-02T09:19:01;12.20;77.20
25616;DHT22;13482;48.234;13.006;2024-03-02T09:21:29;12.30;77.20
25616;DHT22;13482;48.234;13.006;2024-03-02T09:23:57;12.30;77.20
25616;DHT22;13482;48.234;13.006;2024-03-02T09:26:25;12.40;77.10
25616;DHT22;13482;48.234;13.006;2024-03-02T09:28:54;12.50;77.10
25616;DHT22;13482;48.234;13.006;2024-03-02T09:31:43;12.60;77.00
25616;DHT22;13482;48.234;13.006;2024-03-02T09:34:10;12.70;76.90
25616;DHT22;13482;48.234;13.006;2024-03-02T09:36:38;12.80;76.80
25616;DHT22;13482;48.234;13.006;2024-03-02T09:39:07;12.90;76.70
25616;DHT22;13482;48.234;13.006;2024-03-02T09:41:37;13.00;76.60
25616;DHT22;13482;48.234;13.006;2024-03-02T09:44:05;13.10;76.40
25616;DHT22;13482;48.234;13.006;2024-03-02T09:46:34;13.10;76.40
25616;DHT22;13482;48.234;13.006;2024-03-02T09:49:03;13.20;76.40
25616;DHT22;13482;48.234;13.006;2024-03-02T09:51:31;13.30;76.40
25616;DHT22;13482;48.234;13.006;2024-03-02T09:54:01;13.40;76.50
25616;DHT22;13482;48.234;13.006;2024-03-02T09:56:47;13.50;76.50
25616;DHT22;13482;48.234;13.006;2024-03-02T09:59:14;13.60;76.30
25616;DHT22;13482;48.234;13.006;2024-03-02T10:02:11;13.70;76.30
25616;DHT22;13482;48.234;13.006;2024-03-02T10:04:38;13.80;75.70
25616;DHT22;13482;48.234;13.006;2024-03-02T10:07:14;13.80;76.00
25616;DHT22;13482;48.234;13.006;2024-03-02T10:09:46;13.90;75.80
25616;DHT22;13482;48.234;13.006;2024-03-02T10:12:16;14.00;76.00
25616;DHT22;13482;48.234;13.006;2024-03-02T10:14:45;14.10;76.00
25616;DHT22;13482;48.234;13.006;2024-03-02T10:17:13;14.20;75.90
25616;DHT22;13482;48.234;13.006;2024-03-02T10:19:42;14.30;75.80
25616;DHT22;13482;48.234;13.006;2024-03-02T10:22:10;14.30;75.80
25616;DHT22;13482;48.234;13.006;2024-03-02T10:24:42;14.40;75.80
25616;DHT22;13482;48.234;13.006;2024-03-02T10:27:26;14.50;75.60
25616;DHT22;13482;48.234;13.006;2024-03-02T10:29:54;14.60;75.50
25616;DHT22;13482;48.234;13.006;2024-03-02T10:32:23;14.70;75.40
25616;DHT22;13482;48.234;13.006;2024-03-02T10:34:52;14.80;75.10
25616;DHT22;13482;48.234;13.006;2024-03-02T10:37:47;14.80;75.10
25616;DHT22;13482;48.234;13.006;2024-03-02T10:40:37;14.90;74.30
25616;DHT22;13482;48.234;13.006;2024-03-02T10:43:06;15.00;74.70
25616;DHT22;13482;48.234;13.006;2024-03-02T10:45:35;15.10;74.70
25616;DHT22;13482;48.234;13.006;2024-03-02T10:48:03;15.10;74.80
25616;DHT22;13482;48.234;13.006;2024-03-02T10:50:33;15.20;74.80
25616;DHT22;13482;48.234;13.006;2024-03-02T10:53:01;15.30;74.80
25616;DHT22;13482;48.234;13.006;2024-03-02T10:55:28;15.40;74.80
25616;DHT22;13482;48.234;13.006;2024-03-02T10:58:00;15.50;74.80
25616;DHT22;13482;48.234;13.006;2024-03-02T11:00:34;15.60;74.50
25616;DHT22;13482;48.234;13.006;2024-03-02T11:03:12;15.60;74.70
25616;DHT22;13482;48.234;13.006;2024-03-02T11:05:43;15.80;74.20
25616;DHT22;13482;48.234;13.006;2024-03-02T11:08:18;15.90;74.50
25616;DHT22;13482;48.234;13.006;2024-03-02T11:10:58;16.00;74.40
25616;DHT22;13482;48.234;13.006;2024-03-02T11:13:32;16.10;74.50
25616;DHT22;13482;48.234;13.006;2024-03-02T11:16:18;16.20;74.30
25616;DHT22;13482;48.234;13.006;2024-03-02T11:19:05;16.30;73.60
25616;DHT22;13482;48.234;13.006;2024-03-02T11:21:34;16.40;74.10
25616;DHT22;13482;48.234;13.006;2024-03-02T11:26:49;16.60;72.90
25616;DHT22;13482;48.234;13.006;2024-03-02T11:32:20;16.80;72.20
25616;DHT22;13482;48.234;13.006;2024-03-02T11:34:51;16.90;72.60
25616;DHT22;13482;48.234;13.006;2024-03-02T11:37:19;17.00;72.90
25616;DHT22;13482;48.234;13.006;2024-03-02T11:39:50;17.00;72.80
25616;DHT22;13482;48.234;13.006;2024-03-02T11:42:18;17.10;72.50
25616;DHT22;13482;48.234;13.006;2024-03-02T11:44:47;17.10;72.40
25616;DHT22;13482;48.234;13.006;2024-03-02T11:47:17;17.10;72.20
25616;DHT22;13482;48.234;13.006;2024-03-02T11:49:48;17.20;72.10
25616;DHT22;13482;48.234;13.006;2024-03-02T11:52:18;17.20;71.90
25616;DHT22;13482;48.234;13.006;2024-03-02T11:54:47;17.20;71.90
25616;DHT22;13482;48.234;13.006;2024-03-02T11:57:20;17.30;71.70
25616;DHT22;13482;48.234;13.006;2024-03-02T11:59:51;17.30;71.90
25616;DHT22;13482;48.234;13.006;2024-03-02T12:02:20;17.40;71.90
25616;DHT22;13482;48.234;13.006;2024-03-02T12:04:49;17.40;71.80
25616;DHT22;13482;48.234;13.006;2024-03-02T12:07:23;17.50;71.60
25616;DHT22;13482;48.234;13.006;2024-03-02T12:10:00;17.50;71.30
25616;DHT22;13482;48.234;13.006;2024-03-02T12:12:30;17.60;70.50
25616;DHT22;13482;48.234;13.006;2024-03-02T12:14:57;17.50;71.10
25616;DHT22;13482;48.234;13.006;2024-03-02T12:17:29;17.60;71.10
25616;DHT22;13482;48.234;13.006;2024-03-02T12:19:56;17.60;71.10
25616;DHT22;13482;48.234;13.006;2024-03-02T12:22:24;17.60;71.10
25616;DHT22;13482;48.234;13.006;2024-03-02T12:24:52;17.70;71.00
25616;DHT22;13482;48.234;13.006;2024-03-02T12:27:19;17.70;71.00
25616;DHT22;13482;48.234;13.006;2024-03-02T12:29:48;17.80;71.10
25616;DHT22;13482;48.234;13.006;2024-03-02T12:32:16;17.80;71.30
25616;DHT22;13482;48.234;13.006;2024-03-02T12:34:46;17.90;71.00
25616;DHT22;13482;48.234;13.006;2024-03-02T12:37:14;18.00;70.80
25616;DHT22;13482;48.234;13.006;2024-03-02T12:39:45;18.10;70.80
25616;DHT22;13482;48.234;13.006;2024-03-02T12:42:26;18.10;70.50
25616;DHT22;13482;48.234;13.006;2024-03-02T12:44:56;18.20;70.00
25616;DHT22;13482;48.234;13.006;2024-03-02T12:47:23;18.30;70.60
25616;DHT22;13482;48.234;13.006;2024-03-02T12:49:51;18.30;70.50
25616;DHT22;13482;48.234;13.006;2024-03-02T12:52:20;18.40;70.40
25616;DHT22;13482;48.234;13.006;2024-03-02T12:54:49;18.50;70.20
25616;DHT22;13482;48.234;13.006;2024-03-02T12:57:18;18.50;70.20
25616;DHT22;13482;48.234;13.006;2024-03-02T12:59:46;18.60;70.20
25616;DHT22;13482;48.234;13.006;2024-03-02T13:02:18;18.60;69.80
25616;DHT22;13482;48.234;13.006;2024-03-02T13:08:09;18.80;69.00
25616;DHT22;13482;48.234;13.006;2024-03-02T13:10:39;18.90;68.60
25616;DHT22;13482;48.234;13.006;2024-03-02T13:13:08;18.90;69.60
25616;DHT22;13482;48.234;13.006;2024-03-02T13:15:36;18.90;69.30
25616;DHT22;13482;48.234;13.006;2024-03-02T13:18:03;18.90;69.00
25616;DHT22;13482;48.234;13.006;2024-03-02T13:20:33;19.00;68.60
25616;DHT22;13482;48.234;13.006;2024-03-02T13:23:02;19.00;68.70
25616;DHT22;13482;48.234;13.006;2024-03-02T13:25:32;19.00;68.60
25616;DHT22;13482;48.234;13.006;2024-03-02T13:28:00;19.00;68.40
25616;DHT22;13482;48.234;13.006;2024-03-02T13:30:30;19.00;68.60
25616;DHT22;13482;48.234;13.006;2024-03-02T13:32:58;19.10;68.40
25616;DHT22;13482;48.234;13.006;2024-03-02T13:35:26;19.10;68.20
25616;DHT22;13482;48.234;13.006;2024-03-02T13:38:22;19.10;68.20
25616;DHT22;13482;48.234;13.006;2024-03-02T13:40:50;19.10;67.10
25616;DHT22;13482;48.234;13.006;2024-03-02T13:43:20;19.10;68.10
25616;DHT22;13482;48.234;13.006;2024-03-02T13:45:47;19.10;68.00
25616;DHT22;13482;48.234;13.006;2024-03-02T13:48:15;19.20;68.00
25616;DHT22;13482;48.234;13.006;2024-03-02T13:50:42;19.20;67.90
25616;DHT22;13482;48.234;13.006;2024-03-02T13:53:09;19.20;67.70
25616;DHT22;13482;48.234;13.006;2024-03-02T13:55:37;19.20;67.60
25616;DHT22;13482;48.234;13.006;2024-03-02T13:58:04;19.30;67.60
25616;DHT22;13482;48.234;13.006;2024-03-02T14:00:33;19.30;67.60
25616;DHT22;13482;48.234;13.006;2024-03-02T14:03:02;19.30;67.40
25616;DHT22;13482;48.234;13.006;2024-03-02T14:05:30;19.30;67.10
25616;DHT22;13482;48.234;13.006;2024-03-02T14:07:57;19.30;67.00
25616;DHT22;13482;48.234;13.006;2024-03-02T14:10:27;19.30;66.90
25616;DHT22;13482;48.234;13.006;2024-03-02T14:12:55;19.40;67.00
25616;DHT22;13482;48.234;13.006;2024-03-02T14:15:23;19.40;67.00
25616;DHT22;13482;48.234;13.006;2024-03-02T14:17:51;19.40;67.00
25616;DHT22;13482;48.234;13.006;2024-03-02T14:20:18;19.40;67.00
25616;DHT22;13482;48.234;13.006;2024-03-02T14:22:49;19.50;67.00
25616;DHT22;13482;48.234;13.006;2024-03-02T14:25:17;19.50;67.10
25616;DHT22;13482;48.234;13.006;2024-03-02T14:27:46;19.50;67.00
25616;DHT22;13482;48.234;13.006;2024-03-02T14:30:33;19.60;66.90
25616;DHT22;13482;48.234;13.006;2024-03-02T14:33:01;19.60;66.90
25616;DHT22;13482;48.234;13.006;2024-03-02T14:35:28;19.70;67.00
25616;DHT22;13482;48.234;13.006;2024-03-02T14:37:56;19.80;67.00
25616;DHT22;13482;48.234;13.006;2024-03-02T14:40:26;19.80;67.00
25616;DHT22;13482;48.234;13.006;2024-03-02T14:42:56;19.90;66.70
25616;DHT22;13482;48.234;13.006;2024-03-02T14:45:23;20.00;66.70
25616;DHT22;13482;48.234;13.006;2024-03-02T14:47:52;20.10;66.70
25616;DHT22;13482;48.234;13.006;2024-03-02T14:50:20;20.30;66.70
25616;DHT22;13482;48.234;13.006;2024-03-02T14:52:47;20.40;66.90
25616;DHT22;13482;48.234;13.006;2024-03-02T14:55:15;20.60;66.80
25616;DHT22;13482;48.234;13.006;2024-03-02T14:57:43;20.80;66.80
25616;DHT22;13482;48.234;13.006;2024-03-02T15:00:11;21.00;66.80
25616;DHT22;13482;48.234;13.006;2024-03-02T15:02:38;21.20;66.70
25616;DHT22;13482;48.234;13.006;2024-03-02T15:05:06;21.40;66.70
25616;DHT22;13482;48.234;13.006;2024-03-02T15:07:34;21.60;66.50
25616;DHT22;13482;48.234;13.006;2024-03-02T15:10:02;21.90;66.70
25616;DHT22;13482;48.234;13.006;2024-03-02T15:12:32;22.10;66.90
25616;DHT22;13482;48.234;13.006;2024-03-02T15:15:00;22.40;67.00
25616;DHT22;13482;48.234;13.006;2024-03-02T15:17:27;22.70;66.80
25616;DHT22;13482;48.234;13.006;2024-03-02T15:19:55;23.00;66.30
25616;DHT22;13482;48.234;13.006;2024-03-02T15:22:22;23.30;65.90
25616;DHT22;13482;48.234;13.006;2024-03-02T15:24:50;23.60;65.30
25616;DHT22;13482;48.234;13.006;2024-03-02T15:27:17;23.80;64.90
25616;DHT22;13482;48.234;13.006;2024-03-02T15:29:45;24.10;64.60
25616;DHT22;13482;48.234;13.006;2024-03-02T15:32:12;24.30;64.40
25616;DHT22;13482;48.234;13.006;2024-03-02T15:34:40;24.60;63.70
25616;DHT22;13482;48.234;13.006;2024-03-02T15:37:08;24.90;63.40
25616;DHT22;13482;48.234;13.006;2024-03-02T15:39:35;25.00;63.00
25616;DHT22;13482;48.234;13.006;2024-03-02T15:42:03;25.20;62.70
25616;DHT22;13482;48.234;13.006;2024-03-02T15:44:32;25.40;62.30
25616;DHT22;13482;48.234;13.006;2024-03-02T15:47:00;25.60;61.90
25616;DHT22;13482;48.234;13.006;2024-03-02T15:49:27;25.70;61.40
25616;DHT22;13482;48.234;13.006;2024-03-02T15:51:55;25.80;60.90